sensor_id;sensor_type;location;lat;lon;timestamp;P1;durP1;ratioP1;P2;durP2;ratioP2
5831;SDS011;50943;51.448;7.646;2022-11-10T00:00:15;12.03;;;2.17;;
5831;SDS011;50943;51.448;7.646;2022-11-10T00:02:42;16.33;;;2.93;;
5831;SDS011;50943;51.448;7.646;2022-11-10T00:05:09;11.83;;;2.23;;
5831;SDS011;50943;51.448;7.646;2022-11-10T00:07:36;4.50;;;1.47;;
5831;SDS011;50943;51.448;7.646;2022-11-10T00:10:03;5.60;;;2.43;;
5831;SDS011;50943;51.448;7.646;2022-11-10T00:12:32;6.63;;;2.20;;
5831;SDS011;50943;51.448;7.646;2022-11-10T00:14:59;10.77;;;2.20;;
5831;SDS011;50943;51.448;7.646;2022-11-10T00:17:43;12.20;;;2.00;;
5831;SDS011;50943;51.448;7.646;2022-11-10T00:20:11;19.13;;;2.33;;
5831;SDS011;50943;51.448;7.646;2022-11-10T00:22:38;13.87;;;2.43;;
5831;SDS011;50943;51.448;7.646;2022-11-10T00:25:06;8.17;;;2.60;;
5831;SDS011;50943;51.448;7.646;2022-11-10T00:27:34;7.40;;;1.87;;
5831;SDS011;50943;51.448;7.646;2022-11-10T00:30:01;9.90;;;2.00;;
5831;SDS011;50943;51.448;7.646;2022-11-10T00:32:27;13.73;;;2.23;;
5831;SDS011;50943;51.448;7.646;2022-11-10T00:34:54;14.53;;;2.00;;
5831;SDS011;50943;51.448;7.646;2022-11-10T00:37:20;23.17;;;2.07;;
5831;SDS011;50943;51.448;7.646;2022-11-10T00:39:47;14.17;;;2.30;;
5831;SDS011;50943;51.448;7.646;2022-11-10T00:42:14;14.40;;;2.50;;
5831;SDS011;50943;51.448;7.646;2022-11-10T00:44:42;9.53;;;2.07;;
5831;SDS011;50943;51.448;7.646;2022-11-10T00:47:08;12.87;;;2.63;;
5831;SDS011;50943;51.448;7.646;2022-11-10T00:49:35;8.47;;;2.60;;
5831;SDS011;50943;51.448;7.646;2022-11-10T00:52:01;11.77;;;3.33;;
5831;SDS011;50943;51.448;7.646;2022-11-10T00:54:28;14.47;;;2.53;;
5831;SDS011;50943;51.448;7.646;2022-11-10T00:56:54;12.40;;;2.03;;
5831;SDS011;50943;51.448;7.646;2022-11-10T00:59:21;9.77;;;1.63;;
5831;SDS011;50943;51.448;7.646;2022-11-10T01:01:49;6.07;;;1.83;;
5831;SDS011;50943;51.448;7.646;2022-11-10T01:04:15;9.03;;;1.80;;
5831;SDS011;50943;51.448;7.646;2022-11-10T01:06:43;6.63;;;1.87;;
5831;SDS011;50943;51.448;7.646;2022-11-10T01:09:12;14.80;;;2.10;;
5831;SDS011;50943;51.448;7.646;2022-11-10T01:11:38;12.80;;;2.10;;
5831;SDS011;50943;51.448;7.646;2022-11-10T01:14:05;9.77;;;1.40;;
5831;SDS011;50943;51.448;7.646;2022-11-10T01:16:32;17.17;;;3.30;;
5831;SDS011;50943;51.448;7.646;2022-11-10T01:19:00;7.13;;;1.67;;
5831;SDS011;50943;51.448;7.646;2022-11-10T01:21:28;19.53;;;3.40;;
5831;SDS011;50943;51.448;7.646;2022-11-10T01:23:55;11.63;;;2.30;;
5831;SDS011;50943;51.448;7.646;2022-11-10T01:26:22;6.40;;;1.57;;
5831;SDS011;50943;51.448;7.646;2022-11-10T01:28:49;8.20;;;1.60;;
5831;SDS011;50943;51.448;7.646;2022-11-10T01:31:16;21.50;;;2.27;;
5831;SDS011;50943;51.448;7.646;2022-11-10T01:33:44;13.23;;;2.60;;
5831;SDS011;50943;51.448;7.646;2022-11-10T01:36:12;11.03;;;1.80;;
5831;SDS011;50943;51.448;7.646;2022-11-10T01:38:39;17.80;;;2.40;;
5831;SDS011;50943;51.448;7.646;2022-11-10T01:41:07;9.80;;;2.40;;
5831;SDS011;50943;51.448;7.646;2022-11-10T01:43:36;9.60;;;2.30;;
5831;SDS011;50943;51.448;7.646;2022-11-10T01:46:03;14.50;;;2.40;;
5831;SDS011;50943;51.448;7.646;2022-11-10T01:48:31;11.93;;;1.70;;
5831;SDS011;50943;51.448;7.646;2022-11-10T01:51:00;14.57;;;1.83;;
5831;SDS011;50943;51.448;7.646;2022-11-10T01:53:29;14.90;;;2.70;;
5831;SDS011;50943;51.448;7.646;2022-11-10T01:55:57;10.73;;;2.90;;
5831;SDS011;50943;51.448;7.646;2022-11-10T01:58:25;9.00;;;2.03;;
5831;SDS011;50943;51.448;7.646;2022-11-10T02:00:54;13.90;;;2.30;;
5831;SDS011;50943;51.448;7.646;2022-11-10T02:03:23;9.93;;;2.37;;
5831;SDS011;50943;51.448;7.646;2022-11-10T02:05:52;6.53;;;1.80;;
5831;SDS011;50943;51.448;7.646;2022-11-10T02:08:18;10.80;;;2.50;;
5831;SDS011;50943;51.448;7.646;2022-11-10T02:10:49;14.93;;;2.27;;
5831;SDS011;50943;51.448;7.646;2022-11-10T02:13:15;8.80;;;1.70;;
5831;SDS011;50943;51.448;7.646;2022-11-10T02:15:42;10.43;;;2.20;;
5831;SDS011;50943;51.448;7.646;2022-11-10T02:18:08;18.03;;;2.90;;
5831;SDS011;50943;51.448;7.646;2022-11-10T02:20:35;14.60;;;2.83;;
5831;SDS011;50943;51.448;7.646;2022-11-10T02:23:13;12.60;;;3.40;;
5831;SDS011;50943;51.448;7.646;2022-11-10T02:26:00;6.83;;;2.20;;
5831;SDS011;50943;51.448;7.646;2022-11-10T02:28:27;9.20;;;2.27;;
5831;SDS011;50943;51.448;7.646;2022-11-10T02:30:58;8.27;;;1.90;;
5831;SDS011;50943;51.448;7.646;2022-11-10T02:33:24;18.77;;;2.83;;
5831;SDS011;50943;51.448;7.646;2022-11-10T02:35:51;9.30;;;2.30;;
5831;SDS011;50943;51.448;7.646;2022-11-10T02:38:19;19.20;;;2.20;;
5831;SDS011;50943;51.448;7.646;2022-11-10T02:40:47;10.73;;;2.23;;
5831;SDS011;50943;51.448;7.646;2022-11-10T02:43:14;28.03;;;4.33;;
5831;SDS011;50943;51.448;7.646;2022-11-10T02:45:42;16.63;;;2.80;;
5831;SDS011;50943;51.448;7.646;2022-11-10T02:48:09;10.07;;;2.50;;
5831;SDS011;50943;51.448;7.646;2022-11-10T02:50:36;15.53;;;2.77;;
5831;SDS011;50943;51.448;7.646;2022-11-10T02:53:03;11.20;;;2.60;;
5831;SDS011;50943;51.448;7.646;2022-11-10T02:55:31;10.07;;;2.17;;
5831;SDS011;50943;51.448;7.646;2022-11-10T02:57:58;10.93;;;2.33;;
5831;SDS011;50943;51.448;7.646;2022-11-10T03:00:25;12.47;;;1.57;;
5831;SDS011;50943;51.448;7.646;2022-11-10T03:02:54;6.57;;;1.50;;
5831;SDS011;50943;51.448;7.646;2022-11-10T03:05:20;10.93;;;2.70;;
5831;SDS011;50943;51.448;7.646;2022-11-10T03:07:50;16.20;;;2.47;;
5831;SDS011;50943;51.448;7.646;2022-11-10T03:10:18;9.43;;;1.90;;
5831;SDS011;50943;51.448;7.646;2022-11-10T03:12:45;8.93;;;1.70;;
5831;SDS011;50943;51.448;7.646;2022-11-10T03:15:12;14.20;;;2.20;;
5831;SDS011;50943;51.448;7.646;2022-11-10T03:17:39;13.13;;;2.43;;
5831;SDS011;50943;51.448;7.646;2022-11-10T03:20:06;6.30;;;1.60;;
5831;SDS011;50943;51.448;7.646;2022-11-10T03:22:33;10.33;;;2.30;;
5831;SDS011;50943;51.448;7.646;2022-11-10T03:25:01;13.90;;;2.47;;
5831;SDS011;50943;51.448;7.646;2022-11-10T03:27:27;18.23;;;3.20;;
5831;SDS011;50943;51.448;7.646;2022-11-10T03:29:55;14.90;;;2.50;;
5831;SDS011;50943;51.448;7.646;2022-11-10T03:32:22;11.03;;;2.73;;
5831;SDS011;50943;51.448;7.646;2022-11-10T03:34:48;14.83;;;3.10;;
5831;SDS011;50943;51.448;7.646;2022-11-10T03:37:15;11.57;;;3.07;;
5831;SDS011;50943;51.448;7.646;2022-11-10T03:39:41;13.37;;;2.60;;
5831;SDS011;50943;51.448;7.646;2022-11-10T03:42:08;10.23;;;2.67;;
5831;SDS011;50943;51.448;7.646;2022-11-10T03:44:35;8.93;;;2.47;;
5831;SDS011;50943;51.448;7.646;2022-11-10T03:47:03;19.60;;;3.47;;
5831;SDS011;50943;51.448;7.646;2022-11-10T03:49:29;10.77;;;2.50;;
5831;SDS011;50943;51.448;7.646;2022-11-10T03:51:56;12.93;;;2.77;;
5831;SDS011;50943;51.448;7.646;2022-11-10T03:54:23;16.57;;;5.00;;
5831;SDS011;50943;51.448;7.646;2022-11-10T03:56:49;12.00;;;2.40;;
5831;SDS011;50943;51.448;7.646;2022-11-10T03:59:16;7.10;;;1.70;;
5831;SDS011;50943;51.448;7.646;2022-11-10T04:01:42;8.23;;;2.10;;
5831;SDS011;50943;51.448;7.646;2022-11-10T04:04:10;7.60;;;2.50;;
5831;SDS011;50943;51.448;7.646;2022-11-10T04:06:58;13.07;;;2.77;;
5831;SDS011;50943;51.448;7.646;2022-11-10T04:09:42;15.57;;;3.50;;
5831;SDS011;50943;51.448;7.646;2022-11-10T04:12:09;6.33;;;2.13;;
5831;SDS011;50943;51.448;7.646;2022-11-10T04:14:53;7.20;;;2.63;;
5831;SDS011;50943;51.448;7.646;2022-11-10T04:17:37;16.93;;;3.33;;
5831;SDS011;50943;51.448;7.646;2022-11-10T04:20:06;14.03;;;3.73;;
5831;SDS011;50943;51.448;7.646;2022-11-10T04:22:33;16.03;;;3.23;;
5831;SDS011;50943;51.448;7.646;2022-11-10T04:25:17;14.50;;;3.10;;
5831;SDS011;50943;51.448;7.646;2022-11-10T04:27:43;13.77;;;3.47;;
5831;SDS011;50943;51.448;7.646;2022-11-10T04:30:10;20.93;;;3.53;;
5831;SDS011;50943;51.448;7.646;2022-11-10T04:32:37;10.90;;;3.63;;
5831;SDS011;50943;51.448;7.646;2022-11-10T04:35:03;10.83;;;2.90;;
5831;SDS011;50943;51.448;7.646;2022-11-10T04:37:32;14.83;;;3.10;;
5831;SDS011;50943;51.448;7.646;2022-11-10T04:39:58;14.67;;;3.50;;
5831;SDS011;50943;51.448;7.646;2022-11-10T04:42:24;19.70;;;3.93;;
5831;SDS011;50943;51.448;7.646;2022-11-10T04:44:51;15.83;;;3.70;;
5831;SDS011;50943;51.448;7.646;2022-11-10T04:47:18;18.73;;;4.63;;
5831;SDS011;50943;51.448;7.646;2022-11-10T04:49:44;11.43;;;3.70;;
5831;SDS011;50943;51.448;7.646;2022-11-10T04:52:12;14.00;;;3.43;;
5831;SDS011;50943;51.448;7.646;2022-11-10T04:54:38;16.73;;;3.87;;
5831;SDS011;50943;51.448;7.646;2022-11-10T04:57:05;15.23;;;3.63;;
5831;SDS011;50943;51.448;7.646;2022-11-10T04:59:31;20.60;;;4.20;;
5831;SDS011;50943;51.448;7.646;2022-11-10T05:01:58;14.83;;;3.70;;
5831;SDS011;50943;51.448;7.646;2022-11-10T05:04:24;12.07;;;3.67;;
5831;SDS011;50943;51.448;7.646;2022-11-10T05:06:51;15.70;;;3.33;;
5831;SDS011;50943;51.448;7.646;2022-11-10T05:09:19;13.97;;;3.30;;
5831;SDS011;50943;51.448;7.646;2022-11-10T05:11:46;6.07;;;2.53;;
5831;SDS011;50943;51.448;7.646;2022-11-10T05:14:12;12.97;;;2.93;;
5831;SDS011;50943;51.448;7.646;2022-11-10T05:16:39;20.43;;;2.90;;
5831;SDS011;50943;51.448;7.646;2022-11-10T05:19:06;21.87;;;3.10;;
5831;SDS011;50943;51.448;7.646;2022-11-10T05:21:33;21.60;;;3.63;;
5831;SDS011;50943;51.448;7.646;2022-11-10T05:23:59;15.53;;;3.40;;
5831;SDS011;50943;51.448;7.646;2022-11-10T05:26:27;18.80;;;4.30;;
5831;SDS011;50943;51.448;7.646;2022-11-10T05:28:54;13.47;;;5.57;;
5831;SDS011;50943;51.448;7.646;2022-11-10T05:31:20;19.07;;;3.87;;
5831;SDS011;50943;51.448;7.646;2022-11-10T05:33:47;13.33;;;2.97;;
5831;SDS011;50943;51.448;7.646;2022-11-10T05:36:13;12.93;;;3.30;;
5831;SDS011;50943;51.448;7.646;2022-11-10T05:38:40;20.13;;;4.57;;
5831;SDS011;50943;51.448;7.646;2022-11-10T05:41:06;16.07;;;3.77;;
5831;SDS011;50943;51.448;7.646;2022-11-10T05:43:34;13.33;;;3.13;;
5831;SDS011;50943;51.448;7.646;2022-11-10T05:46:01;23.30;;;3.30;;
5831;SDS011;50943;51.448;7.646;2022-11-10T05:48:27;14.20;;;3.90;;
5831;SDS011;50943;51.448;7.646;2022-11-10T05:50:54;12.43;;;3.70;;
5831;SDS011;50943;51.448;7.646;2022-11-10T05:53:20;16.90;;;4.20;;
5831;SDS011;50943;51.448;7.646;2022-11-10T05:55:47;7.90;;;2.37;;
5831;SDS011;50943;51.448;7.646;2022-11-10T05:58:13;15.97;;;3.70;;
5831;SDS011;50943;51.448;7.646;2022-11-10T06:00:41;12.63;;;3.90;;
5831;SDS011;50943;51.448;7.646;2022-11-10T06:03:11;13.77;;;4.00;;
5831;SDS011;50943;51.448;7.646;2022-11-10T06:05:39;17.10;;;4.20;;
5831;SDS011;50943;51.448;7.646;2022-11-10T06:08:06;15.37;;;4.50;;
5831;SDS011;50943;51.448;7.646;2022-11-10T06:10:33;11.40;;;3.70;;
5831;SDS011;50943;51.448;7.646;2022-11-10T06:13:00;21.83;;;3.83;;
5831;SDS011;50943;51.448;7.646;2022-11-10T06:15:28;21.30;;;5.10;;
5831;SDS011;50943;51.448;7.646;2022-11-10T06:17:56;21.00;;;4.43;;
5831;SDS011;50943;51.448;7.646;2022-11-10T06:20:23;17.83;;;3.90;;
5831;SDS011;50943;51.448;7.646;2022-11-10T06:22:59;18.20;;;4.90;;
5831;SDS011;50943;51.448;7.646;2022-11-10T06:25:27;15.90;;;3.70;;
5831;SDS011;50943;51.448;7.646;2022-11-10T06:27:54;12.53;;;3.40;;
5831;SDS011;50943;51.448;7.646;2022-11-10T06:30:21;14.10;;;4.20;;
5831;SDS011;50943;51.448;7.646;2022-11-10T06:32:48;17.60;;;4.40;;
5831;SDS011;50943;51.448;7.646;2022-11-10T06:35:16;17.70;;;3.80;;
5831;SDS011;50943;51.448;7.646;2022-11-10T06:37:42;8.93;;;4.13;;
5831;SDS011;50943;51.448;7.646;2022-11-10T06:40:09;17.83;;;4.70;;
5831;SDS011;50943;51.448;7.646;2022-11-10T06:42:38;12.93;;;3.50;;
5831;SDS011;50943;51.448;7.646;2022-11-10T06:45:05;13.27;;;3.87;;
5831;SDS011;50943;51.448;7.646;2022-11-10T06:47:33;12.37;;;3.90;;
5831;SDS011;50943;51.448;7.646;2022-11-10T06:49:59;17.70;;;3.97;;
5831;SDS011;50943;51.448;7.646;2022-11-10T06:52:27;19.40;;;4.33;;
5831;SDS011;50943;51.448;7.646;2022-11-10T06:54:55;15.83;;;5.40;;
5831;SDS011;50943;51.448;7.646;2022-11-10T06:57:22;23.57;;;4.83;;
5831;SDS011;50943;51.448;7.646;2022-11-10T06:59:49;13.73;;;4.40;;
5831;SDS011;50943;51.448;7.646;2022-11-10T07:02:15;12.60;;;4.10;;
5831;SDS011;50943;51.448;7.646;2022-11-10T07:04:42;12.47;;;4.00;;
5831;SDS011;50943;51.448;7.646;2022-11-10T07:07:08;11.07;;;4.20;;
5831;SDS011;50943;51.448;7.646;2022-11-10T07:09:36;6.77;;;3.07;;
5831;SDS011;50943;51.448;7.646;2022-11-10T07:12:03;13.77;;;4.10;;
5831;SDS011;50943;51.448;7.646;2022-11-10T07:14:30;30.17;;;5.00;;
5831;SDS011;50943;51.448;7.646;2022-11-10T07:16:57;15.93;;;5.37;;
5831;SDS011;50943;51.448;7.646;2022-11-10T07:19:23;12.93;;;5.27;;
5831;SDS011;50943;51.448;7.646;2022-11-10T07:21:50;23.57;;;4.80;;
5831;SDS011;50943;51.448;7.646;2022-11-10T07:24:16;9.27;;;3.70;;
5831;SDS011;50943;51.448;7.646;2022-11-10T07:26:44;12.53;;;3.20;;
5831;SDS011;50943;51.448;7.646;2022-11-10T07:29:11;13.27;;;3.40;;
5831;SDS011;50943;51.448;7.646;2022-11-10T07:31:37;18.23;;;3.53;;
5831;SDS011;50943;51.448;7.646;2022-11-10T07:34:04;15.90;;;4.00;;
5831;SDS011;50943;51.448;7.646;2022-11-10T07:36:30;19.70;;;3.70;;
5831;SDS011;50943;51.448;7.646;2022-11-10T07:38:57;13.30;;;4.00;;
5831;SDS011;50943;51.448;7.646;2022-11-10T07:41:24;11.50;;;3.70;;
5831;SDS011;50943;51.448;7.646;2022-11-10T07:43:51;28.47;;;4.67;;
5831;SDS011;50943;51.448;7.646;2022-11-10T07:46:18;18.03;;;3.93;;
5831;SDS011;50943;51.448;7.646;2022-11-10T07:48:45;8.83;;;2.70;;
5831;SDS011;50943;51.448;7.646;2022-11-10T07:51:11;11.97;;;3.67;;
5831;SDS011;50943;51.448;7.646;2022-11-10T07:53:38;13.50;;;4.00;;
5831;SDS011;50943;51.448;7.646;2022-11-10T07:56:05;37.73;;;5.43;;
5831;SDS011;50943;51.448;7.646;2022-11-10T07:58:32;22.50;;;4.57;;
5831;SDS011;50943;51.448;7.646;2022-11-10T08:01:00;17.37;;;3.87;;
5831;SDS011;50943;51.448;7.646;2022-11-10T08:03:27;9.93;;;2.60;;
5831;SDS011;50943;51.448;7.646;2022-11-10T08:05:54;15.27;;;4.20;;
5831;SDS011;50943;51.448;7.646;2022-11-10T08:08:21;10.40;;;3.47;;
5831;SDS011;50943;51.448;7.646;2022-11-10T08:10:47;8.60;;;4.60;;
5831;SDS011;50943;51.448;7.646;2022-11-10T08:13:14;16.33;;;4.57;;
5831;SDS011;50943;51.448;7.646;2022-11-10T08:15:40;12.93;;;4.27;;
5831;SDS011;50943;51.448;7.646;2022-11-10T08:18:12;27.03;;;4.03;;
5831;SDS011;50943;51.448;7.646;2022-11-10T08:20:40;13.33;;;3.93;;
5831;SDS011;50943;51.448;7.646;2022-11-10T08:23:07;17.87;;;4.40;;
5831;SDS011;50943;51.448;7.646;2022-11-10T08:25:34;11.23;;;3.30;;
5831;SDS011;50943;51.448;7.646;2022-11-10T08:28:02;7.70;;;3.93;;
5831;SDS011;50943;51.448;7.646;2022-11-10T08:30:30;21.03;;;4.60;;
5831;SDS011;50943;51.448;7.646;2022-11-10T08:32:58;10.83;;;3.80;;
5831;SDS011;50943;51.448;7.646;2022-11-10T08:35:28;15.67;;;5.33;;
5831;SDS011;50943;51.448;7.646;2022-11-10T08:37:55;16.60;;;3.60;;
5831;SDS011;50943;51.448;7.646;2022-11-10T08:40:22;11.50;;;4.50;;
5831;SDS011;50943;51.448;7.646;2022-11-10T08:42:56;11.53;;;4.57;;
5831;SDS011;50943;51.448;7.646;2022-11-10T08:45:23;13.23;;;3.63;;
5831;SDS011;50943;51.448;7.646;2022-11-10T08:47:55;9.53;;;3.83;;
5831;SDS011;50943;51.448;7.646;2022-11-10T08:50:22;18.63;;;4.60;;
5831;SDS011;50943;51.448;7.646;2022-11-10T08:52:50;12.67;;;3.30;;
5831;SDS011;50943;51.448;7.646;2022-11-10T08:55:17;14.57;;;3.40;;
5831;SDS011;50943;51.448;7.646;2022-11-10T08:57:44;15.67;;;2.37;;
5831;SDS011;50943;51.448;7.646;2022-11-10T09:00:11;11.40;;;3.90;;
5831;SDS011;50943;51.448;7.646;2022-11-10T09:02:38;19.17;;;4.50;;
5831;SDS011;50943;51.448;7.646;2022-11-10T09:05:05;14.30;;;3.50;;
5831;SDS011;50943;51.448;7.646;2022-11-10T09:07:33;3.83;;;2.03;;
5831;SDS011;50943;51.448;7.646;2022-11-10T09:10:02;9.13;;;2.57;;
5831;SDS011;50943;51.448;7.646;2022-11-10T09:12:29;7.53;;;2.50;;
5831;SDS011;50943;51.448;7.646;2022-11-10T09:14:55;22.83;;;5.17;;
5831;SDS011;50943;51.448;7.646;2022-11-10T09:17:21;15.33;;;5.00;;
5831;SDS011;50943;51.448;7.646;2022-11-10T09:19:48;10.43;;;2.40;;
5831;SDS011;50943;51.448;7.646;2022-11-10T09:22:14;11.30;;;3.30;;
5831;SDS011;50943;51.448;7.646;2022-11-10T09:24:41;13.27;;;3.80;;
5831;SDS011;50943;51.448;7.646;2022-11-10T09:27:09;9.20;;;3.60;;
5831;SDS011;50943;51.448;7.646;2022-11-10T09:29:36;19.83;;;3.90;;
5831;SDS011;50943;51.448;7.646;2022-11-10T09:32:03;24.67;;;4.20;;
5831;SDS011;50943;51.448;7.646;2022-11-10T09:34:29;13.57;;;3.90;;
5831;SDS011;50943;51.448;7.646;2022-11-10T09:36:56;13.13;;;3.30;;
5831;SDS011;50943;51.448;7.646;2022-11-10T09:39:23;10.87;;;2.77;;
5831;SDS011;50943;51.448;7.646;2022-11-10T09:41:49;18.40;;;3.10;;
5831;SDS011;50943;51.448;7.646;2022-11-10T09:44:20;8.93;;;2.77;;
5831;SDS011;50943;51.448;7.646;2022-11-10T09:46:50;9.33;;;3.13;;
5831;SDS011;50943;51.448;7.646;2022-11-10T09:49:24;9.00;;;2.03;;
5831;SDS011;50943;51.448;7.646;2022-11-10T09:51:55;11.40;;;2.20;;
5831;SDS011;50943;51.448;7.646;2022-11-10T09:54:26;16.90;;;2.73;;
5831;SDS011;50943;51.448;7.646;2022-11-10T09:56:58;11.90;;;2.60;;
5831;SDS011;50943;51.448;7.646;2022-11-10T09:59:27;13.97;;;2.23;;
5831;SDS011;50943;51.448;7.646;2022-11-10T10:01:57;11.50;;;2.70;;
5831;SDS011;50943;51.448;7.646;2022-11-10T10:07:25;15.10;;;2.90;;
5831;SDS011;50943;51.448;7.646;2022-11-10T10:09:56;10.53;;;2.50;;
5831;SDS011;50943;51.448;7.646;2022-11-10T10:12:34;16.70;;;2.40;;
5831;SDS011;50943;51.448;7.646;2022-11-10T10:15:15;13.77;;;2.37;;
5831;SDS011;50943;51.448;7.646;2022-11-10T10:17:49;6.57;;;2.00;;
5831;SDS011;50943;51.448;7.646;2022-11-10T10:20:20;8.77;;;2.30;;
5831;SDS011;50943;51.448;7.646;2022-11-10T10:22:54;12.03;;;2.90;;
5831;SDS011;50943;51.448;7.646;2022-11-10T10:25:28;9.70;;;2.43;;
5831;SDS011;50943;51.448;7.646;2022-11-10T10:27:57;18.80;;;2.63;;
5831;SDS011;50943;51.448;7.646;2022-11-10T10:30:26;12.27;;;2.50;;
5831;SDS011;50943;51.448;7.646;2022-11-10T10:32:55;10.33;;;2.30;;
5831;SDS011;50943;51.448;7.646;2022-11-10T10:35:22;14.27;;;3.07;;
5831;SDS011;50943;51.448;7.646;2022-11-10T10:37:50;13.00;;;3.43;;
5831;SDS011;50943;51.448;7.646;2022-11-10T10:40:19;16.77;;;2.70;;
5831;SDS011;50943;51.448;7.646;2022-11-10T10:42:47;18.90;;;2.63;;
5831;SDS011;50943;51.448;7.646;2022-11-10T10:45:16;14.10;;;3.40;;
5831;SDS011;50943;51.448;7.646;2022-11-10T10:47:45;13.43;;;2.57;;
5831;SDS011;50943;51.448;7.646;2022-11-10T10:50:20;15.83;;;3.27;;
5831;SDS011;50943;51.448;7.646;2022-11-10T10:53:04;14.93;;;2.50;;
5831;SDS011;50943;51.448;7.646;2022-11-10T10:55:32;3.67;;;1.20;;
5831;SDS011;50943;51.448;7.646;2022-11-10T10:57:59;10.23;;;2.27;;
5831;SDS011;50943;51.448;7.646;2022-11-10T11:00:27;12.33;;;1.83;;
5831;SDS011;50943;51.448;7.646;2022-11-10T11:03:02;13.27;;;2.67;;
5831;SDS011;50943;51.448;7.646;2022-11-10T11:05:30;12.00;;;2.20;;
5831;SDS011;50943;51.448;7.646;2022-11-10T11:07:57;6.20;;;1.43;;
5831;SDS011;50943;51.448;7.646;2022-11-10T11:10:25;13.47;;;2.20;;
5831;SDS011;50943;51.448;7.646;2022-11-10T11:12:53;19.60;;;2.60;;
5831;SDS011;50943;51.448;7.646;2022-11-10T11:15:21;6.80;;;1.60;;
5831;SDS011;50943;51.448;7.646;2022-11-10T11:17:54;10.53;;;2.23;;
5831;SDS011;50943;51.448;7.646;2022-11-10T11:20:26;11.30;;;1.93;;
5831;SDS011;50943;51.448;7.646;2022-11-10T11:22:55;10.53;;;2.33;;
5831;SDS011;50943;51.448;7.646;2022-11-10T11:25:26;13.00;;;2.33;;
5831;SDS011;50943;51.448;7.646;2022-11-10T11:27:59;9.53;;;1.60;;
5831;SDS011;50943;51.448;7.646;2022-11-10T11:30:37;8.10;;;2.00;;
5831;SDS011;50943;51.448;7.646;2022-11-10T11:33:12;10.23;;;1.97;;
5831;SDS011;50943;51.448;7.646;2022-11-10T11:35:45;14.23;;;2.93;;
5831;SDS011;50943;51.448;7.646;2022-11-10T11:38:15;10.90;;;2.50;;
5831;SDS011;50943;51.448;7.646;2022-11-10T11:40:50;21.17;;;2.20;;
5831;SDS011;50943;51.448;7.646;2022-11-10T11:43:31;11.83;;;2.47;;
5831;SDS011;50943;51.448;7.646;2022-11-10T11:46:05;11.07;;;2.20;;
5831;SDS011;50943;51.448;7.646;2022-11-10T11:51:25;13.13;;;2.33;;
5831;SDS011;50943;51.448;7.646;2022-11-10T11:54:07;16.10;;;2.07;;
5831;SDS011;50943;51.448;7.646;2022-11-10T11:56:41;21.20;;;3.33;;
5831;SDS011;50943;51.448;7.646;2022-11-10T11:59:12;12.33;;;3.47;;
5831;SDS011;50943;51.448;7.646;2022-11-10T12:01:51;13.97;;;2.40;;
5831;SDS011;50943;51.448;7.646;2022-11-10T12:04:43;14.60;;;2.67;;
5831;SDS011;50943;51.448;7.646;2022-11-10T12:07:15;12.03;;;2.13;;
5831;SDS011;50943;51.448;7.646;2022-11-10T12:09:54;10.20;;;1.90;;
5831;SDS011;50943;51.448;7.646;2022-11-10T12:12:28;13.20;;;2.63;;
5831;SDS011;50943;51.448;7.646;2022-11-10T12:15:03;12.93;;;2.30;;
5831;SDS011;50943;51.448;7.646;2022-11-10T12:17:38;10.73;;;1.97;;
5831;SDS011;50943;51.448;7.646;2022-11-10T12:20:15;4.77;;;1.67;;
5831;SDS011;50943;51.448;7.646;2022-11-10T12:22:56;11.30;;;1.80;;
5831;SDS011;50943;51.448;7.646;2022-11-10T12:25:30;8.10;;;2.03;;
5831;SDS011;50943;51.448;7.646;2022-11-10T12:28:07;7.53;;;1.33;;
5831;SDS011;50943;51.448;7.646;2022-11-10T12:30:36;8.30;;;1.90;;
5831;SDS011;50943;51.448;7.646;2022-11-10T12:33:05;10.13;;;2.40;;
5831;SDS011;50943;51.448;7.646;2022-11-10T12:35:36;12.53;;;2.03;;
5831;SDS011;50943;51.448;7.646;2022-11-10T12:38:06;10.30;;;3.03;;
5831;SDS011;50943;51.448;7.646;2022-11-10T12:40:36;10.13;;;2.40;;
5831;SDS011;50943;51.448;7.646;2022-11-10T12:43:05;12.80;;;2.13;;
5831;SDS011;50943;51.448;7.646;2022-11-10T12:45:34;10.10;;;1.80;;
5831;SDS011;50943;51.448;7.646;2022-11-10T12:48:04;7.77;;;1.23;;
5831;SDS011;50943;51.448;7.646;2022-11-10T12:50:37;8.67;;;1.97;;
5831;SDS011;50943;51.448;7.646;2022-11-10T12:53:12;9.53;;;2.30;;
5831;SDS011;50943;51.448;7.646;2022-11-10T12:55:41;9.73;;;2.00;;
5831;SDS011;50943;51.448;7.646;2022-11-10T12:58:10;13.60;;;2.40;;
5831;SDS011;50943;51.448;7.646;2022-11-10T13:00:38;14.70;;;1.83;;
5831;SDS011;50943;51.448;7.646;2022-11-10T13:03:11;9.93;;;2.90;;
5831;SDS011;50943;51.448;7.646;2022-11-10T13:05:39;6.43;;;2.00;;
5831;SDS011;50943;51.448;7.646;2022-11-10T13:08:13;9.33;;;1.63;;
5831;SDS011;50943;51.448;7.646;2022-11-10T13:10:46;7.37;;;1.33;;
5831;SDS011;50943;51.448;7.646;2022-11-10T13:13:16;10.00;;;2.00;;
5831;SDS011;50943;51.448;7.646;2022-11-10T13:15:46;7.77;;;1.63;;
5831;SDS011;50943;51.448;7.646;2022-11-10T13:24:29;3.67;;;1.03;;
5831;SDS011;50943;51.448;7.646;2022-11-10T13:26:56;10.10;;;2.30;;
5831;SDS011;50943;51.448;7.646;2022-11-10T13:29:28;10.13;;;1.90;;
5831;SDS011;50943;51.448;7.646;2022-11-10T13:32:08;6.20;;;1.40;;
5831;SDS011;50943;51.448;7.646;2022-11-10T13:34:52;3.70;;;1.50;;
5831;SDS011;50943;51.448;7.646;2022-11-10T13:40:30;10.67;;;2.07;;
5831;SDS011;50943;51.448;7.646;2022-11-10T13:43:11;6.27;;;1.53;;
5831;SDS011;50943;51.448;7.646;2022-11-10T13:46:01;8.10;;;1.40;;
5831;SDS011;50943;51.448;7.646;2022-11-10T13:48:32;11.07;;;1.60;;
5831;SDS011;50943;51.448;7.646;2022-11-10T13:51:14;8.80;;;1.70;;
5831;SDS011;50943;51.448;7.646;2022-11-10T13:53:51;7.60;;;1.33;;
5831;SDS011;50943;51.448;7.646;2022-11-10T13:56:26;8.80;;;2.07;;
5831;SDS011;50943;51.448;7.646;2022-11-10T13:59:13;7.40;;;1.53;;
5831;SDS011;50943;51.448;7.646;2022-11-10T14:01:42;11.83;;;2.57;;
5831;SDS011;50943;51.448;7.646;2022-11-10T14:04:08;8.17;;;2.00;;
5831;SDS011;50943;51.448;7.646;2022-11-10T14:07:11;8.23;;;1.33;;
5831;SDS011;50943;51.448;7.646;2022-11-10T14:09:39;9.57;;;1.83;;
5831;SDS011;50943;51.448;7.646;2022-11-10T14:12:14;10.30;;;1.60;;
5831;SDS011;50943;51.448;7.646;2022-11-10T14:14:49;18.20;;;1.87;;
5831;SDS011;50943;51.448;7.646;2022-11-10T14:17:21;12.20;;;1.73;;
5831;SDS011;50943;51.448;7.646;2022-11-10T14:19:49;6.60;;;1.77;;
5831;SDS011;50943;51.448;7.646;2022-11-10T14:22:19;2.53;;;1.00;;
5831;SDS011;50943;51.448;7.646;2022-11-10T14:24:51;11.33;;;1.53;;
5831;SDS011;50943;51.448;7.646;2022-11-10T14:27:23;9.63;;;1.73;;
5831;SDS011;50943;51.448;7.646;2022-11-10T14:30:01;10.60;;;2.23;;
5831;SDS011;50943;51.448;7.646;2022-11-10T14:32:29;10.70;;;2.23;;
5831;SDS011;50943;51.448;7.646;2022-11-10T14:34:56;4.57;;;1.30;;
5831;SDS011;50943;51.448;7.646;2022-11-10T14:37:23;8.33;;;1.70;;
5831;SDS011;50943;51.448;7.646;2022-11-10T14:39:52;6.60;;;1.53;;
5831;SDS011;50943;51.448;7.646;2022-11-10T14:42:20;3.50;;;1.43;;
5831;SDS011;50943;51.448;7.646;2022-11-10T14:44:49;8.03;;;1.43;;
5831;SDS011;50943;51.448;7.646;2022-11-10T14:47:30;3.33;;;0.90;;
5831;SDS011;50943;51.448;7.646;2022-11-10T14:50:04;7.03;;;1.77;;
5831;SDS011;50943;51.448;7.646;2022-11-10T14:52:32;3.43;;;1.20;;
5831;SDS011;50943;51.448;7.646;2022-11-10T14:55:04;10.20;;;1.50;;
5831;SDS011;50943;51.448;7.646;2022-11-10T14:57:36;6.90;;;1.43;;
5831;SDS011;50943;51.448;7.646;2022-11-10T15:00:07;11.70;;;2.90;;
5831;SDS011;50943;51.448;7.646;2022-11-10T15:02:39;6.37;;;1.47;;
5831;SDS011;50943;51.448;7.646;2022-11-10T15:05:07;11.37;;;2.17;;
5831;SDS011;50943;51.448;7.646;2022-11-10T15:07:34;9.70;;;1.60;;
5831;SDS011;50943;51.448;7.646;2022-11-10T15:10:05;7.57;;;1.60;;
5831;SDS011;50943;51.448;7.646;2022-11-10T15:12:37;6.47;;;1.80;;
5831;SDS011;50943;51.448;7.646;2022-11-10T15:15:13;3.80;;;1.33;;
5831;SDS011;50943;51.448;7.646;2022-11-10T15:17:44;9.77;;;1.77;;